createdAt,value
2022-09-14T00:00:07.121Z,65.63
2022-09-14T00:02:34.839Z,66.22
2022-09-14T00:05:02.566Z,66.15
2022-09-14T00:07:40.283Z,67.05
2022-09-14T00:10:12.488Z,66.30
2022-09-14T00:12:40.036Z,65.64
2022-09-14T00:15:13.315Z,65.77
2022-09-14T00:17:40.930Z,66.63
2022-09-14T00:20:08.973Z,67.93
2022-09-14T00:22:36.943Z,67.14
2022-09-14T00:25:06.926Z,67.71
2022-09-14T00:27:36.268Z,68.29
2022-09-14T00:30:06.335Z,66.82
2022-09-14T00:32:43.943Z,67.94
2022-09-14T00:35:11.497Z,69.14
2022-09-14T00:37:44.624Z,69.81
2022-09-14T00:40:20.651Z,69.92
2022-09-14T00:42:52.979Z,68.83
2022-09-14T00:45:21.267Z,67.86
2022-09-14T00:47:49.544Z,67.54
2022-09-14T00:50:17.461Z,67.33
2022-09-14T00:52:49.221Z,67.38
2022-09-14T00:55:20.950Z,65.43
2022-09-14T00:57:53.645Z,64.76
2022-09-14T01:00:22.476Z,64.81
2022-09-14T01:02:52.151Z,64.96
2022-09-14T01:05:22.630Z,65.21
2022-09-14T01:07:56.917Z,65.47
2022-09-14T01:10:28.686Z,67.73
2022-09-14T01:13:02.918Z,69.05
2022-09-14T01:15:32.702Z,67.55
2022-09-14T01:18:02.396Z,68.79
2022-09-14T01:20:32.143Z,68.80
2022-09-14T01:23:07.512Z,69.85
2022-09-14T01:25:38.705Z,74.60
2022-09-14T01:28:08.717Z,76.55
2022-09-14T01:30:44.550Z,78.72
2022-09-14T01:33:13.636Z,86.75
2022-09-14T01:35:42.208Z,90.74
2022-09-14T01:38:10.581Z,89.55
2022-09-14T01:40:38.685Z,93.69
2022-09-14T01:43:10.906Z,96.74
2022-09-14T01:45:43.171Z,96.31
2022-09-14T01:48:14.176Z,96.09
2022-09-14T01:50:45.005Z,94.58
2022-09-14T01:53:14.315Z,94.12
2022-09-14T01:55:49.671Z,94.66
2022-09-14T01:58:18.606Z,94.38
2022-09-14T02:01:02.411Z,94.17
2022-09-14T02:03:33.271Z,91.81
2022-09-14T02:06:01.499Z,91.89
2022-09-14T02:08:34.269Z,92.91
2022-09-14T02:11:02.272Z,92.29
2022-09-14T02:13:31.666Z,91.68
2022-09-14T02:16:06.633Z,91.31
2022-09-14T02:18:34.787Z,91.21
2022-09-14T02:21:04.371Z,89.06
2022-09-14T02:23:32.768Z,89.90
2022-09-14T02:26:01.838Z,88.14
2022-09-14T02:28:29.631Z,87.84
2022-09-14T02:31:04.511Z,87.93
2022-09-14T02:33:35.075Z,90.36
2022-09-14T02:36:05.617Z,94.45
2022-09-14T02:38:34.990Z,92.57
2022-09-14T02:41:04.116Z,93.52
2022-09-14T02:43:34.387Z,91.46
2022-09-14T02:46:06.103Z,90.27
2022-09-14T02:48:38.019Z,88.27
2022-09-14T02:51:07.706Z,89.02
2022-09-14T02:53:39.246Z,89.30
2022-09-14T02:56:07.982Z,86.81
2022-09-14T02:58:36.623Z,87.12
2022-09-14T03:01:09.284Z,88.40
2022-09-14T03:03:37.291Z,88.27
2022-09-14T03:06:05.611Z,88.69
2022-09-14T03:08:33.523Z,87.81
2022-09-14T03:11:01.079Z,85.78
2022-09-14T03:13:30.787Z,88.24
2022-09-14T03:16:01.711Z,88.00
2022-09-14T03:18:33.875Z,89.50
2022-09-14T03:21:07.804Z,88.42
2022-09-14T03:23:38.964Z,86.28
2022-09-14T03:26:10.596Z,88.13
2022-09-14T03:28:38.216Z,88.72
2022-09-14T03:31:06.602Z,91.33
2022-09-14T03:36:19.620Z,89.40
2022-09-14T03:38:49.147Z,90.95
2022-09-14T03:41:17.547Z,94.24
2022-09-14T03:43:46.192Z,93.63
2022-09-14T03:46:14.658Z,93.73
2022-09-14T03:48:47.538Z,91.04
2022-09-14T03:51:16.018Z,92.41
2022-09-14T03:53:45.065Z,92.94
2022-09-14T03:56:17.664Z,89.64
2022-09-14T03:58:46.846Z,91.87
2022-09-14T04:01:16.190Z,91.08
2022-09-14T04:03:45.735Z,90.71
2022-09-14T04:06:14.192Z,89.92
2022-09-14T04:08:42.175Z,90.99
2022-09-14T04:11:10.993Z,91.33
2022-09-14T04:13:41.344Z,92.44
2022-09-14T04:16:11.698Z,95.07
2022-09-14T04:18:39.713Z,95.08
2022-09-14T04:21:12.106Z,96.06
2022-09-14T04:24:02.933Z,97.07
2022-09-14T04:26:28.585Z,97.31
2022-09-14T04:28:56.675Z,97.03
2022-09-14T04:31:24.816Z,96.17
2022-09-14T04:33:54.977Z,97.45
2022-09-14T04:36:25.933Z,98.59
2022-09-14T04:38:56.280Z,98.54
2022-09-14T04:41:27.324Z,97.73
2022-09-14T04:43:55.846Z,98.77
2022-09-14T04:46:24.273Z,100.00
2022-09-14T04:48:55.192Z,100.00
2022-09-14T04:51:25.251Z,99.84
2022-09-14T04:53:53.557Z,100.00
2022-09-14T04:56:24.562Z,100.00
2022-09-14T04:58:53.422Z,99.31
2022-09-14T05:01:21.931Z,98.55
2022-09-14T05:03:49.929Z,98.89
2022-09-14T05:06:20.871Z,97.49
2022-09-14T05:08:50.818Z,99.56
2022-09-14T05:11:22.406Z,97.29
2022-09-14T05:13:51.098Z,98.87
2022-09-14T05:16:20.665Z,98.69
2022-09-14T05:18:49.313Z,98.45
2022-09-14T05:21:20.916Z,98.89
2022-09-14T05:23:54.279Z,99.22
2022-09-14T05:26:25.075Z,99.86
2022-09-14T05:28:53.821Z,98.81
2022-09-14T05:31:21.642Z,98.31
2022-09-14T05:33:49.777Z,95.74
2022-09-14T05:36:17.613Z,95.72
2022-09-14T05:38:45.483Z,95.28
2022-09-14T05:41:15.218Z,97.79
2022-09-14T05:43:43.617Z,97.78
2022-09-14T05:46:12.014Z,98.95
2022-09-14T05:48:42.820Z,99.12
2022-09-14T05:51:11.981Z,98.89
2022-09-14T05:53:39.559Z,98.99
2022-09-14T05:56:08.291Z,98.63
2022-09-14T05:58:39.214Z,97.26
2022-09-14T06:01:10.517Z,96.46
2022-09-14T06:03:38.165Z,96.71
2022-09-14T06:06:06.447Z,95.90
2022-09-14T06:08:37.176Z,97.37
2022-09-14T06:11:05.082Z,99.06
2022-09-14T06:13:33.107Z,99.55
2022-09-14T06:16:14.886Z,99.46
2022-09-14T06:18:43.746Z,98.41
2022-09-14T06:21:17.732Z,98.23
2022-09-14T06:23:48.293Z,98.53
2022-09-14T06:26:16.933Z,97.85
2022-09-14T06:28:45.073Z,99.78
2022-09-14T06:31:15.169Z,97.90
2022-09-14T06:33:44.669Z,99.42
2022-09-14T06:36:13.595Z,97.55
2022-09-14T06:38:42.196Z,97.56
2022-09-14T06:41:12.264Z,97.28
2022-09-14T06:43:40.388Z,96.81
2022-09-14T06:46:11.771Z,96.69
2022-09-14T06:48:41.973Z,97.13
2022-09-14T06:51:13.393Z,97.05
2022-09-14T06:53:41.072Z,96.90
2022-09-14T06:56:08.925Z,96.59
2022-09-14T06:58:37.009Z,96.77
2022-09-14T07:01:05.435Z,96.95
2022-09-14T07:03:33.421Z,96.96
2022-09-14T07:06:07.582Z,96.07
2022-09-14T07:08:35.863Z,94.50
2022-09-14T07:11:04.001Z,96.16
2022-09-14T07:13:32.110Z,95.89
2022-09-14T07:16:00.097Z,96.13
2022-09-14T07:18:29.136Z,94.60
2022-09-14T07:20:59.582Z,97.38
2022-09-14T07:23:31.642Z,96.84
2022-09-14T07:26:03.124Z,96.32
2022-09-14T07:28:33.037Z,96.45
2022-09-14T07:31:01.346Z,97.95
2022-09-14T07:33:30.801Z,97.47
2022-09-14T07:36:05.904Z,96.26
2022-09-14T07:38:51.636Z,95.31
2022-09-14T07:41:24.939Z,95.15
2022-09-14T07:43:53.032Z,94.58
2022-09-14T07:46:22.466Z,92.55
2022-09-14T07:49:01.356Z,94.38
2022-09-14T07:51:29.850Z,94.27
2022-09-14T07:54:00.830Z,94.78
2022-09-14T07:56:30.753Z,94.96
2022-09-14T07:59:17.271Z,94.80
2022-09-14T08:01:47.670Z,94.80
2022-09-14T08:04:15.357Z,94.57
2022-09-14T08:06:43.507Z,94.69
2022-09-14T08:09:16.741Z,94.96
2022-09-14T08:11:44.899Z,94.70
2022-09-14T08:14:14.254Z,93.59
2022-09-14T08:16:49.519Z,93.73
2022-09-14T08:19:18.502Z,92.39
2022-09-14T08:21:48.763Z,91.24
2022-09-14T08:24:18.734Z,92.10
2022-09-14T08:26:46.960Z,91.19
2022-09-14T08:29:15.062Z,92.13
2022-09-14T08:31:46.349Z,92.51
2022-09-14T08:34:16.191Z,91.74
2022-09-14T08:36:48.700Z,91.83
2022-09-14T08:39:19.406Z,91.46
2022-09-14T08:41:49.565Z,90.47
2022-09-14T08:44:25.967Z,90.47
2022-09-14T08:46:55.705Z,90.68
2022-09-14T08:49:30.147Z,91.21
2022-09-14T08:51:59.418Z,92.04
2022-09-14T08:54:28.742Z,91.45
2022-09-14T08:56:59.947Z,91.22
2022-09-14T08:59:35.554Z,88.07
2022-09-14T09:02:06.921Z,84.73
2022-09-14T09:04:37.678Z,85.11
2022-09-14T09:07:09.785Z,85.24
2022-09-14T09:09:41.494Z,85.54
2022-09-14T09:12:10.641Z,84.71
2022-09-14T09:14:40.213Z,84.62
2022-09-14T09:17:11.682Z,86.13
2022-09-14T09:19:40.310Z,86.46
2022-09-14T09:22:15.873Z,86.99
2022-09-14T09:24:47.400Z,85.04
2022-09-14T09:27:16.876Z,84.42
2022-09-14T09:29:45.011Z,84.21
2022-09-14T09:32:14.651Z,84.73
2022-09-14T09:34:42.633Z,83.72
2022-09-14T09:37:13.025Z,83.36
2022-09-14T09:39:43.221Z,82.34
2022-09-14T09:42:20.049Z,80.59
2022-09-14T09:45:02.551Z,80.52
2022-09-14T09:47:35.231Z,80.68
2022-09-14T09:50:03.825Z,78.91
2022-09-14T09:52:33.045Z,78.02
2022-09-14T09:55:01.292Z,78.81
2022-09-14T09:57:31.953Z,78.61
2022-09-14T10:00:21.731Z,78.33
2022-09-14T10:02:53.303Z,78.00
2022-09-14T10:05:22.959Z,76.84
2022-09-14T10:07:53.669Z,77.73
2022-09-14T10:10:22.439Z,78.57
2022-09-14T10:12:55.636Z,78.01
2022-09-14T10:15:25.744Z,77.67
2022-09-14T10:18:02.050Z,77.85
2022-09-14T10:20:29.845Z,77.64
2022-09-14T10:22:58.440Z,76.76
2022-09-14T10:25:29.050Z,77.80
2022-09-14T10:28:01.747Z,76.73
2022-09-14T10:30:30.073Z,74.33
2022-09-14T10:32:59.210Z,74.47
2022-09-14T10:35:40.367Z,73.78
2022-09-14T10:38:17.435Z,74.46
2022-09-14T10:40:46.027Z,73.21
2022-09-14T10:43:17.138Z,73.24
2022-09-14T10:45:49.845Z,73.23
2022-09-14T10:48:21.779Z,72.56
2022-09-14T10:50:54.085Z,72.60
2022-09-14T10:53:29.966Z,70.37
2022-09-14T10:56:04.051Z,72.95
2022-09-14T10:58:40.570Z,70.26
2022-09-14T11:01:14.521Z,69.99
2022-09-14T11:03:48.612Z,70.06
2022-09-14T11:06:21.905Z,70.60
2022-09-14T11:08:54.088Z,69.29
2022-09-14T11:11:28.822Z,70.40
2022-09-14T11:14:04.055Z,69.65
2022-09-14T11:16:40.853Z,69.46
2022-09-14T11:19:10.498Z,68.76
2022-09-14T11:21:45.052Z,67.91
2022-09-14T11:24:15.395Z,69.30
2022-09-14T11:26:45.018Z,68.87
2022-09-14T11:29:18.084Z,69.56
2022-09-14T11:32:04.170Z,70.18
2022-09-14T11:34:38.861Z,71.04
2022-09-14T11:37:07.940Z,70.31
2022-09-14T11:39:39.927Z,70.65
2022-09-14T11:42:10.724Z,70.94
2022-09-14T11:44:40.681Z,70.04
2022-09-14T11:47:08.890Z,70.29
2022-09-14T11:49:49.746Z,69.02
2022-09-14T11:52:19.766Z,70.10
2022-09-14T11:54:47.980Z,68.93
2022-09-14T11:57:20.485Z,69.85
2022-09-14T11:59:51.379Z,69.93
2022-09-14T12:02:49.327Z,70.27
2022-09-14T12:05:33.930Z,70.94
2022-09-14T12:08:07.155Z,71.39
2022-09-14T12:10:50.222Z,70.18
2022-09-14T12:13:21.405Z,71.40
2022-09-14T12:15:50.835Z,71.80
2022-09-14T12:18:22.952Z,70.89
2022-09-14T12:20:56.799Z,71.08
2022-09-14T12:23:28.632Z,71.38
2022-09-14T12:25:59.476Z,71.09
2022-09-14T12:28:30.712Z,72.30
2022-09-14T12:31:33.129Z,72.16
2022-09-14T12:34:07.018Z,74.29
2022-09-14T12:36:55.227Z,75.13
2022-09-14T12:39:27.876Z,78.19
2022-09-14T12:42:13.310Z,80.44
2022-09-14T12:44:41.537Z,83.27
2022-09-14T12:47:28.688Z,85.49
2022-09-14T12:50:12.071Z,87.82
2022-09-14T12:52:43.592Z,90.84
2022-09-14T12:55:23.990Z,92.07
2022-09-14T12:57:53.486Z,92.00
2022-09-14T13:00:26.746Z,92.26
2022-09-14T13:03:00.073Z,91.77
2022-09-14T13:05:30.700Z,93.77
2022-09-14T13:07:58.587Z,93.02
2022-09-14T13:10:28.745Z,93.97
2022-09-14T13:12:56.418Z,93.78
2022-09-14T13:15:26.010Z,93.69
2022-09-14T13:17:58.084Z,92.44
2022-09-14T13:20:26.041Z,92.59
2022-09-14T13:22:57.075Z,91.25
2022-09-14T13:25:29.427Z,91.40
2022-09-14T13:27:57.549Z,90.11
2022-09-14T13:30:26.386Z,90.03
2022-09-14T13:32:56.333Z,89.34
2022-09-14T13:35:29.174Z,92.04
2022-09-14T13:37:59.718Z,94.12
2022-09-14T13:40:29.610Z,94.86
2022-09-14T13:42:57.533Z,94.48
2022-09-14T13:45:27.365Z,95.15
2022-09-14T13:47:55.109Z,94.99
2022-09-14T13:50:29.619Z,94.84
2022-09-14T13:53:03.933Z,94.59
2022-09-14T13:55:43.973Z,92.99
2022-09-14T13:58:16.054Z,94.26
2022-09-14T14:00:48.249Z,94.47
2022-09-14T14:03:23.785Z,93.89
2022-09-14T14:05:51.887Z,93.51
2022-09-14T14:08:26.577Z,94.64
2022-09-14T14:10:57.444Z,91.46
2022-09-14T14:13:28.045Z,92.03
2022-09-14T14:15:58.236Z,91.31
2022-09-14T14:18:33.175Z,91.98
2022-09-14T14:21:12.023Z,91.64
2022-09-14T14:23:56.706Z,92.46
2022-09-14T14:26:30.279Z,91.64
2022-09-14T14:29:08.341Z,92.13
2022-09-14T14:31:35.949Z,92.52
2022-09-14T14:34:14.068Z,92.83
2022-09-14T14:36:41.691Z,92.53
2022-09-14T14:39:11.828Z,92.18
2022-09-14T14:41:40.651Z,90.78
2022-09-14T14:44:08.367Z,92.51
2022-09-14T14:46:39.310Z,93.05
2022-09-14T14:49:09.383Z,94.52
2022-09-14T14:51:45.012Z,94.46
2022-09-14T14:54:16.337Z,94.46
2022-09-14T14:56:44.562Z,95.93
2022-09-14T14:59:39.871Z,94.59
2022-09-14T15:02:07.493Z,95.02
2022-09-14T15:04:38.770Z,94.93
2022-09-14T15:07:06.478Z,92.39
2022-09-14T15:09:35.590Z,91.75
2022-09-14T15:12:03.718Z,91.88
2022-09-14T15:14:31.609Z,91.17
2022-09-14T15:17:03.492Z,91.42
2022-09-14T15:19:32.976Z,90.08
2022-09-14T15:22:01.832Z,89.07
2022-09-14T15:24:29.931Z,88.92
2022-09-14T15:27:04.329Z,88.98
2022-09-14T15:29:34.694Z,90.95
2022-09-14T15:32:02.403Z,92.11
2022-09-14T15:34:33.058Z,91.15
2022-09-14T15:37:03.467Z,91.68
2022-09-14T15:39:31.595Z,91.93
2022-09-14T15:42:00.626Z,90.39
2022-09-14T15:44:32.329Z,90.47
2022-09-14T15:47:01.294Z,90.59
2022-09-14T15:49:32.316Z,90.09
2022-09-14T15:52:00.209Z,89.78
2022-09-14T15:54:31.917Z,89.80
2022-09-14T15:57:01.779Z,89.23
2022-09-14T15:59:29.460Z,88.79
2022-09-14T16:01:57.585Z,87.16
2022-09-14T16:04:25.177Z,86.87
2022-09-14T16:06:53.094Z,88.39
2022-09-14T16:09:25.270Z,90.03
2022-09-14T16:11:53.111Z,90.04
2022-09-14T16:14:24.746Z,90.43
2022-09-14T16:16:52.887Z,90.55
2022-09-14T16:19:21.046Z,91.16
2022-09-14T16:21:53.717Z,90.43
2022-09-14T16:24:22.119Z,89.79
2022-09-14T16:26:51.011Z,88.86
2022-09-14T16:29:19.715Z,89.07
2022-09-14T16:31:51.488Z,89.08
2022-09-14T16:34:20.891Z,90.83
2022-09-14T16:36:48.788Z,89.77
2022-09-14T16:39:17.598Z,90.63
2022-09-14T16:41:46.456Z,90.08
2022-09-14T16:44:14.811Z,90.59
2022-09-14T16:46:44.740Z,91.41
2022-09-14T16:49:13.966Z,90.19
2022-09-14T16:51:41.901Z,90.06
2022-09-14T16:54:09.883Z,90.66
2022-09-14T16:56:38.298Z,89.81
2022-09-14T16:59:06.150Z,90.16
2022-09-14T17:01:34.239Z,91.12
2022-09-14T17:04:06.391Z,90.80
2022-09-14T17:06:38.050Z,90.89
2022-09-14T17:09:06.726Z,89.39
2022-09-14T17:11:37.671Z,90.36
2022-09-14T17:14:05.866Z,89.62
2022-09-14T17:16:34.068Z,88.82
2022-09-14T17:19:02.559Z,87.63
2022-09-14T17:21:31.354Z,86.74
2022-09-14T17:24:01.486Z,87.99
2022-09-14T17:26:29.580Z,87.57
2022-09-14T17:28:58.382Z,88.38
2022-09-14T17:31:28.747Z,88.64
2022-09-14T17:33:57.031Z,87.84
2022-09-14T17:36:25.306Z,86.80
2022-09-14T17:38:56.381Z,86.12
2022-09-14T17:41:28.495Z,86.69
2022-09-14T17:44:10.292Z,84.51
2022-09-14T17:46:45.976Z,84.36
2022-09-14T17:49:20.538Z,86.43
2022-09-14T17:51:51.177Z,84.11
2022-09-14T17:54:19.138Z,85.58
2022-09-14T17:56:48.834Z,83.36
2022-09-14T17:59:19.888Z,84.68
2022-09-14T18:02:06.653Z,83.22
2022-09-14T18:04:35.388Z,84.88
2022-09-14T18:07:04.543Z,86.24
2022-09-14T18:09:32.159Z,84.96
2022-09-14T18:12:04.850Z,85.41
2022-09-14T18:14:33.914Z,85.36
2022-09-14T18:17:04.379Z,82.94
2022-09-14T18:19:32.819Z,83.43
2022-09-14T18:22:01.778Z,83.48
2022-09-14T18:24:29.678Z,85.42
2022-09-14T18:26:57.327Z,84.87
2022-09-14T18:29:27.729Z,85.16
2022-09-14T18:31:55.467Z,85.37
2022-09-14T18:34:26.310Z,84.51
2022-09-14T18:36:54.107Z,85.29
2022-09-14T18:39:21.698Z,85.85
2022-09-14T18:41:51.046Z,86.21
2022-09-14T18:44:18.888Z,86.34
2022-09-14T18:46:48.673Z,86.59
2022-09-14T18:49:16.891Z,87.27
2022-09-14T18:51:48.832Z,87.14
2022-09-14T18:54:16.537Z,87.48
2022-09-14T18:56:46.764Z,86.33
2022-09-14T18:59:15.245Z,86.85
2022-09-14T19:01:45.438Z,86.37
2022-09-14T19:04:15.913Z,86.65
2022-09-14T19:06:44.622Z,85.56
2022-09-14T19:09:15.248Z,85.87
2022-09-14T19:11:43.159Z,86.00
2022-09-14T19:14:11.706Z,85.85
2022-09-14T19:16:42.306Z,86.34
2022-09-14T19:19:14.105Z,84.51
2022-09-14T19:21:43.493Z,85.50
2022-09-14T19:24:11.948Z,84.37
2022-09-14T19:26:45.232Z,84.80
2022-09-14T19:29:13.772Z,83.84
2022-09-14T19:31:44.485Z,84.51
2022-09-14T19:34:12.669Z,85.03
2022-09-14T19:36:42.940Z,86.65
2022-09-14T19:39:11.936Z,85.18
2022-09-14T19:41:40.822Z,85.71
2022-09-14T19:44:09.986Z,84.81
2022-09-14T19:46:39.717Z,85.38
2022-09-14T19:49:07.852Z,84.93
2022-09-14T19:51:35.821Z,83.57
2022-09-14T19:54:03.380Z,82.82
2022-09-14T19:56:33.742Z,83.61
2022-09-14T19:59:04.107Z,84.16
2022-09-14T20:01:32.928Z,84.74
2022-09-14T20:04:00.686Z,84.66
2022-09-14T20:06:31.427Z,84.81
2022-09-14T20:08:59.578Z,86.02
2022-09-14T20:11:28.109Z,85.83
2022-09-14T20:13:57.874Z,87.09
2022-09-14T20:16:26.091Z,87.32
2022-09-14T20:18:54.095Z,87.81
2022-09-14T20:21:22.739Z,87.37
2022-09-14T20:24:14.721Z,86.59
2022-09-14T20:26:41.870Z,87.39
2022-09-14T20:29:11.124Z,86.50
2022-09-14T20:31:39.891Z,85.38
2022-09-14T20:34:07.827Z,84.48
2022-09-14T20:36:35.386Z,86.52
2022-09-14T20:39:06.940Z,84.06
2022-09-14T20:41:35.748Z,83.98
2022-09-14T20:44:07.373Z,84.07
2022-09-14T20:46:38.508Z,84.36
2022-09-14T20:49:07.637Z,84.84
2022-09-14T20:51:37.614Z,85.15
2022-09-14T20:54:05.492Z,85.01
2022-09-14T20:56:33.600Z,85.80
2022-09-14T20:59:02.031Z,86.69
2022-09-14T21:01:32.798Z,85.75
2022-09-14T21:04:07.252Z,87.05
2022-09-14T21:06:38.077Z,87.33
2022-09-14T21:09:05.979Z,86.46
2022-09-14T21:11:34.445Z,87.52
2022-09-14T21:14:02.374Z,87.62
2022-09-14T21:16:31.364Z,87.35
2022-09-14T21:19:00.164Z,86.86
2022-09-14T21:21:29.980Z,86.64
2022-09-14T21:23:59.709Z,87.82
2022-09-14T21:26:30.686Z,86.02
2022-09-14T21:29:01.423Z,88.26
2022-09-14T21:31:32.064Z,88.71
2022-09-14T21:34:02.772Z,89.21
2022-09-14T21:36:34.584Z,88.36
2022-09-14T21:39:09.866Z,88.11
2022-09-14T21:41:41.778Z,88.80
2022-09-14T21:44:20.353Z,89.76
2022-09-14T21:46:47.941Z,91.33
2022-09-14T21:49:16.081Z,91.60
2022-09-14T21:51:46.908Z,90.55
2022-09-14T21:54:14.614Z,90.67
2022-09-14T21:56:42.870Z,90.11
2022-09-14T21:59:11.677Z,89.56
2022-09-14T22:01:39.288Z,90.07
2022-09-14T22:04:07.991Z,89.98
2022-09-14T22:06:37.968Z,88.93
2022-09-14T22:09:07.669Z,87.75
2022-09-14T22:11:37.775Z,85.66
2022-09-14T22:14:07.823Z,86.84
2022-09-14T22:16:37.895Z,87.62
2022-09-14T22:19:07.212Z,85.85
2022-09-14T22:21:35.574Z,84.15
2022-09-14T22:24:03.949Z,83.15
2022-09-14T22:26:33.674Z,84.55
2022-09-14T22:29:01.781Z,84.07
2022-09-14T22:31:30.240Z,81.85
2022-09-14T22:33:58.345Z,81.81
2022-09-14T22:36:29.014Z,82.34
2022-09-14T22:38:57.140Z,83.15
2022-09-14T22:41:26.028Z,82.41
2022-09-14T22:43:55.614Z,82.71
2022-09-14T22:46:26.641Z,82.82
2022-09-14T22:48:54.764Z,82.44
2022-09-14T22:51:27.662Z,82.45
2022-09-14T22:53:57.317Z,83.75
2022-09-14T22:56:25.705Z,84.37
2022-09-14T22:58:53.404Z,85.49
2022-09-14T23:01:23.474Z,84.96
2022-09-14T23:03:52.683Z,87.51
2022-09-14T23:06:21.944Z,89.87
2022-09-14T23:08:50.835Z,90.32
2022-09-14T23:11:18.647Z,90.64
2022-09-14T23:13:46.237Z,90.59
2022-09-14T23:16:14.776Z,88.85
2022-09-14T23:18:44.221Z,91.18
2022-09-14T23:21:13.161Z,90.57
2022-09-14T23:23:53.359Z,90.40
2022-09-14T23:26:21.078Z,91.35
2022-09-14T23:28:54.888Z,91.83
2022-09-14T23:31:24.050Z,91.65
2022-09-14T23:33:55.253Z,91.13
2022-09-14T23:36:24.094Z,89.08
2022-09-14T23:38:55.748Z,89.88
2022-09-14T23:41:26.486Z,89.63
2022-09-14T23:43:54.077Z,88.83
2022-09-14T23:46:22.478Z,89.44
2022-09-14T23:48:50.278Z,89.76
2022-09-14T23:51:25.014Z,88.95
2022-09-14T23:53:53.190Z,88.60
2022-09-14T23:56:20.968Z,88.49
2022-09-14T23:58:50.210Z,89.68
